首页
METAR-TAF:

METAR-TAF

机场 :

Ontario Municipal Airport

安大略, 俄勒冈州, 美国

纬度: 44-01-10N, 经度: 117-00-35W, 海拔: 667米

当前天气观测

该预报发布于17分钟前的16:53 UTC
风速8节,风向西
温度 21°C
湿度 46%
气压 1017 hPa
能見度: 16.1公里
少量云层高于7500英尺
多云层高于12000英尺
小雨

METAR: KONO 011653Z AUTO 28008KT 10SM -RA FEW075 BKN120 21/09 A3004 RMK AO2 RAB32 SLP162 P0000 T02110094

时间: 11:10 (17:10 UTC)


TAF: 丢失

超过4000个机场的气象观测和天气预报(METAR&TAF报告)。

可查询的气象台以黄色和红色小点在地图上表示。

将鼠标移到小点上方,可查看气象台名称。

然后点击查看天气观测和预报。

如需切换地图:点击带黑十字的绿色按钮放大地图;点击带横线的绿色按钮缩小地图;或者点击绿色箭头查看邻近地区的地图。


METAR-TAF: